Time;durP1;ratioP1;P1;durP2;ratioP2;P2;SDS_P1;SDS_P2;PMS_P1;PMS_P2;Temp;Humidity;BMP_temperature;BMP_pressure;BME280_temperature;BME280_humidity;BME280_pressure;Samples;Min_cycle;Max_cycle;Signal;HPM_P1;HPM_P2
2024/04/24 17:31:42;;;;;;;1.83;1.70;;;;;;;11.42;56.23;98670.13;6524580;21;20022;-86
2024/04/24 17:34:09;;;;;;;3.90;1.60;;;;;;;11.38;56.39;98673.97;6478771;22;20029;-85
2024/04/24 17:36:35;;;;;;;4.35;1.77;;;;;;;11.34;56.34;98676.84;6479940;22;20002;-86
2024/04/24 17:39:03;;;;;;;3.15;1.65;;;;;;;11.33;56.24;98679.63;6480413;22;20312;-86
2024/04/24 17:41:34;;;;;;;3.80;1.63;;;;;;;11.30;56.26;98678.06;6481832;22;20290;-86
2024/04/24 17:44:01;;;;;;;1.67;1.48;;;;;;;11.29;56.47;98689.53;6481192;22;20015;-86
2024/04/24 17:46:28;;;;;;;2.75;1.83;;;;;;;11.27;56.51;98691.47;6525613;22;20432;-85
2024/04/24 17:48:55;;;;;;;4.10;1.50;;;;;;;11.27;56.30;98691.47;6481484;22;20312;-87
2024/04/24 17:51:21;;;;;;;4.63;1.92;;;;;;;11.24;56.03;98686.44;6480545;22;20012;-86
2024/04/24 17:53:48;;;;;;;3.28;1.63;;;;;;;11.24;56.47;98704.00;6481597;22;20012;-86
2024/04/24 17:56:15;;;;;;;3.10;1.80;;;;;;;11.21;56.66;98698.03;6526581;22;20015;-86
2024/04/24 17:58:41;;;;;;;4.28;2.20;;;;;;;11.20;56.31;98701.63;6525483;21;20005;-87
2024/04/24 18:01:08;;;;;;;4.20;1.40;;;;;;;11.16;56.22;98702.81;6480497;22;20300;-86
2024/04/24 18:03:35;;;;;;;4.07;2.03;;;;;;;11.12;56.47;98705.78;6480815;22;20042;-87
2024/04/24 18:06:04;;;;;;;5.30;1.95;;;;;;;11.06;56.27;98709.72;6482445;22;20453;-86
2024/04/24 18:08:32;;;;;;;3.65;1.83;;;;;;;11.00;56.26;98711.06;6480934;21;20425;-87
2024/04/24 18:10:59;;;;;;;3.35;1.73;;;;;;;10.94;56.53;98712.34;6481139;22;20441;-88
2024/04/24 18:13:27;;;;;;;4.72;1.75;;;;;;;10.89;56.50;98713.66;6480719;22;20001;-87
2024/04/24 18:15:54;;;;;;;5.07;1.77;;;;;;;10.84;56.33;98715.81;6526566;22;20001;-85
2024/04/24 18:18:20;;;;;;;3.45;1.73;;;;;;;10.80;56.50;98721.28;6526112;22;19997;-86
2024/04/24 18:20:47;;;;;;;5.78;1.60;;;;;;;10.75;56.60;98723.44;6480861;22;20008;-86
2024/04/24 18:23:14;;;;;;;5.93;2.00;;;;;;;10.71;56.84;98721.97;6480888;22;20308;-85
2024/04/24 18:25:41;;;;;;;2.20;1.48;;;;;;;10.69;56.71;98729.13;6481092;22;20009;-86
2024/04/24 18:28:08;;;;;;;5.22;1.60;;;;;;;10.68;57.02;98730.94;6481540;22;20078;-86
2024/04/24 18:30:34;;;;;;;6.53;1.90;;;;;;;10.67;56.95;98731.06;6481755;22;20424;-86
2024/04/24 18:33:02;;;;;;;2.10;1.30;;;;;;;10.65;56.91;98738.25;6482606;22;20315;-86
2024/04/24 18:35:32;;;;;;;6.47;1.92;;;;;;;10.60;56.88;98735.94;6483388;22;20005;-86
2024/04/24 18:37:59;;;;;;;3.85;1.65;;;;;;;10.58;57.00;98737.00;6483443;22;20015;-86
2024/04/24 18:40:28;;;;;;;3.35;1.80;;;;;;;10.55;56.81;98725.72;6528145;21;20001;-86
2024/04/24 18:42:55;;;;;;;3.40;1.45;;;;;;;10.50;57.15;98732.31;6483502;22;20001;-86
2024/04/24 18:45:21;;;;;;;5.50;1.83;;;;;;;10.50;56.81;98742.84;6482958;22;20005;-88
2024/04/24 18:47:48;;;;;;;5.63;1.70;;;;;;;10.46;56.82;98742.19;6483465;22;20001;-86
2024/04/24 18:50:15;;;;;;;4.32;2.08;;;;;;;10.41;56.52;98749.56;6527802;21;20791;-87
2024/04/24 18:52:42;;;;;;;3.00;1.50;;;;;;;10.38;56.86;98747.16;6527381;22;19997;-87
2024/04/24 18:55:14;;;;;;;4.72;1.80;;;;;;;10.32;56.57;98753.69;6527287;22;20025;-87
2024/04/24 18:57:42;;;;;;;4.57;1.80;;;;;;;10.30;56.60;98761.72;6483051;22;20001;-87
2024/04/24 19:00:14;;;;;;;2.75;1.33;;;;;;;10.23;56.33;98759.59;6482251;22;20080;-87
2024/04/24 19:02:51;;;;;;;;;;;;;;;;;;;;;
2024/04/24 19:05:22;;;;;;;3.28;1.70;;;;;;;10.14;56.75;98767.19;6527436;22;20001;-86
2024/04/24 19:07:49;;;;;;;4.40;1.48;;;;;;;10.08;56.55;98767.66;6527435;22;20012;-86
2024/04/24 19:10:16;;;;;;;4.18;1.77;;;;;;;10.02;56.63;98768.09;6482663;22;20079;-86
2024/04/24 19:12:43;;;;;;;3.40;2.00;;;;;;;9.97;56.65;98770.19;6482283;22;20011;-87
2024/04/24 19:15:10;;;;;;;3.55;1.85;;;;;;;9.93;56.65;98768.72;6527359;22;20580;-87
2024/04/24 19:17:37;;;;;;;7.70;1.92;;;;;;;9.86;56.65;98779.69;6526962;22;20024;-87
2024/04/24 19:20:04;;;;;;;5.13;1.92;;;;;;;9.81;56.83;98776.53;6481473;22;20392;-85
2024/04/24 19:22:32;;;;;;;4.55;2.03;;;;;;;9.75;56.76;98775.19;6482024;22;20025;-85
2024/04/24 19:24:59;;;;;;;5.70;2.00;;;;;;;9.70;57.00;98779.91;6482073;22;20091;-85
2024/04/24 19:27:25;;;;;;;3.55;2.00;;;;;;;9.67;57.10;98781.91;6482382;22;20438;-85
2024/04/24 19:30:06;;;;;;;6.82;1.92;;;;;;;9.62;56.80;98774.34;6486892;22;20083;-85
2024/04/24 19:32:33;;;;;;;4.85;1.92;;;;;;;9.58;57.08;98786.00;6481691;22;19997;-85
2024/04/24 19:35:01;;;;;;;4.82;1.92;;;;;;;9.54;56.93;98793.28;6481888;22;20001;-85
2024/04/24 19:37:29;;;;;;;5.20;1.90;;;;;;;9.48;57.28;98793.69;6482419;22;20004;-84
2024/04/24 19:39:56;;;;;;;5.30;2.10;;;;;;;9.44;57.24;98800.09;6481946;22;20320;-86
2024/04/24 19:42:22;;;;;;;2.92;1.65;;;;;;;9.38;57.29;98790.81;6481459;22;20312;-85
2024/04/24 19:44:49;;;;;;;4.65;2.10;;;;;;;9.36;57.55;98792.72;6481488;22;20417;-85
2024/04/24 19:47:16;;;;;;;3.90;1.90;;;;;;;9.34;57.79;98799.84;6482009;22;20004;-86
2024/04/24 19:49:44;;;;;;;6.55;2.10;;;;;;;9.32;57.75;98801.75;6526674;21;20002;-85
2024/04/24 19:52:10;;;;;;;5.50;2.45;;;;;;;9.28;57.70;98798.50;6481486;22;20012;-85
2024/04/24 19:54:37;;;;;;;4.03;1.98;;;;;;;9.26;58.02;98803.00;6481891;22;20020;-86
2024/04/24 19:57:04;;;;;;;4.85;1.95;;;;;;;9.23;58.00;98804.06;6481487;22;19997;-86
2024/04/24 19:59:30;;;;;;;6.90;2.10;;;;;;;9.20;57.81;98799.00;6526513;21;20015;-85
2024/04/24 20:01:57;;;;;;;7.05;2.35;;;;;;;9.18;58.17;98806.16;6480618;22;20021;-85
2024/04/24 20:04:25;;;;;;;4.90;1.63;;;;;;;9.13;58.29;98809.06;6526224;22;19997;-86
2024/04/24 20:06:52;;;;;;;5.22;2.10;;;;;;;9.10;58.41;98804.03;6481125;22;20420;-85
2024/04/24 20:09:19;;;;;;;3.55;1.75;;;;;;;9.08;58.49;98810.34;6526641;21;20016;-87
2024/04/24 20:11:47;;;;;;;4.53;1.92;;;;;;;9.04;58.46;98806.25;6481178;22;20463;-85
2024/04/24 20:14:14;;;;;;;3.50;1.85;;;;;;;9.02;58.77;98815.97;6526113;22;20001;-86
2024/04/24 20:16:41;;;;;;;7.30;2.50;;;;;;;9.00;58.57;98808.22;6526275;22;20005;-87
2024/04/24 20:19:08;;;;;;;5.00;2.10;;;;;;;8.96;58.81;98812.81;6480956;22;20009;-87
2024/04/24 20:21:35;;;;;;;4.60;2.13;;;;;;;8.95;58.70;98815.53;6525948;22;19997;-84
2024/04/24 20:24:02;;;;;;;3.80;1.85;;;;;;;8.93;58.98;98820.06;6526014;22;20029;-85
2024/04/24 20:26:28;;;;;;;9.25;2.30;;;;;;;8.90;58.78;98818.47;6481102;22;20012;-85
2024/04/24 20:28:55;;;;;;;6.60;2.22;;;;;;;8.86;58.88;98820.44;6526119;21;20001;-84
2024/04/24 20:31:26;;;;;;;5.65;2.03;;;;;;;8.84;59.01;98830.22;6481505;22;20012;-85
2024/04/24 20:33:55;;;;;;;8.73;2.45;;;;;;;8.79;58.87;98826.22;6526582;22;20012;-86
2024/04/24 20:36:23;;;;;;;7.65;2.38;;;;;;;8.76;59.04;98840.38;6526456;22;20040;-87
2024/04/24 20:38:51;;;;;;;3.83;1.98;;;;;;;8.69;59.19;98823.31;6526897;21;20509;-86
2024/04/24 20:41:18;;;;;;;4.88;2.20;;;;;;;8.65;59.15;98835.81;6526066;22;20005;-85
2024/04/24 20:43:46;;;;;;;8.65;2.35;;;;;;;8.59;59.07;98828.31;6481553;22;20375;-86
2024/04/24 20:46:13;;;;;;;3.95;2.30;;;;;;;8.53;59.19;98829.56;6481657;22;20015;-85
2024/04/24 20:48:40;;;;;;;5.18;2.15;;;;;;;8.47;59.12;98829.91;6526369;21;19997;-86
2024/04/24 20:51:07;;;;;;;3.55;1.85;;;;;;;8.42;59.35;98830.22;6526147;22;20380;-87
2024/04/24 20:53:34;;;;;;;6.80;2.00;;;;;;;8.37;59.36;98837.50;6480662;22;20506;-87
2024/04/24 20:56:08;;;;;;;6.28;1.95;;;;;;;8.28;59.54;98838.94;6481668;22;20011;-84
2024/04/24 20:58:35;;;;;;;5.13;2.10;;;;;;;8.27;59.74;98833.78;6481458;21;20015;-85
2024/04/24 21:01:03;;;;;;;7.75;1.90;;;;;;;8.21;59.77;98837.63;6526217;22;20446;-84
2024/04/24 21:03:29;;;;;;;5.38;1.83;;;;;;;8.16;59.89;98835.31;6526469;22;20033;-85
2024/04/24 21:05:57;;;;;;;8.27;2.33;;;;;;;8.12;60.12;98840.81;6526899;22;20518;-85
2024/04/24 21:08:25;;;;;;;7.03;1.90;;;;;;;8.08;60.16;98837.56;6481506;22;19997;-84
2024/04/24 21:10:52;;;;;;;3.28;1.60;;;;;;;8.05;60.05;98837.75;6481522;22;20330;-84
2024/04/24 21:13:19;;;;;;;5.68;2.08;;;;;;;8.03;60.25;98840.44;6525797;22;20012;-85
2024/04/24 21:15:46;;;;;;;13.90;2.30;;;;;;;8.00;60.56;98840.63;6481814;22;20012;-85
2024/04/24 21:18:12;;;;;;;7.13;1.88;;;;;;;7.97;60.55;98835.59;6526227;22;20080;-85
2024/04/24 21:20:39;;;;;;;6.72;2.55;;;;;;;7.97;60.73;98843.47;6480642;22;20001;-85
2024/04/24 21:23:06;;;;;;;6.00;1.85;;;;;;;7.94;60.77;98843.66;6481271;22;20479;-85
2024/04/24 21:25:34;;;;;;;4.80;1.92;;;;;;;7.92;60.87;98838.50;6481007;22;20016;-85
2024/04/24 21:28:02;;;;;;;4.95;1.83;;;;;;;7.91;60.60;98839.44;6481196;22;19997;-85
2024/04/24 21:30:28;;;;;;;3.47;1.80;;;;;;;7.89;60.90;98841.28;6481345;22;20016;-85
2024/04/24 21:32:55;;;;;;;4.82;2.13;;;;;;;7.85;60.84;98833.72;6480546;22;19997;-85
2024/04/24 21:35:22;;;;;;;6.60;2.17;;;;;;;7.83;60.75;98833.81;6525906;22;20087;-85
2024/04/24 21:37:49;;;;;;;3.83;1.85;;;;;;;7.80;61.02;98836.59;6481026;22;19997;-87
2024/04/24 21:40:16;;;;;;;4.47;1.80;;;;;;;7.76;61.00;98837.72;6480958;22;20075;-87
2024/04/24 21:42:42;;;;;;;4.32;2.10;;;;;;;7.73;61.14;98837.94;6480605;22;19993;-86
2024/04/24 21:45:09;;;;;;;3.90;2.13;;;;;;;7.68;61.04;98833.81;6525824;22;20013;-86
2024/04/24 21:47:36;;;;;;;6.10;2.00;;;;;;;7.64;61.13;98828.84;6481412;22;20013;-86
2024/04/24 21:50:03;;;;;;;6.15;2.17;;;;;;;7.62;61.33;98831.53;6525750;21;20048;-85
2024/04/24 21:52:30;;;;;;;8.75;2.35;;;;;;;7.58;61.63;98827.41;6525392;22;20394;-86
2024/04/24 21:54:58;;;;;;;4.63;1.73;;;;;;;7.56;61.38;98824.88;6526316;22;20005;-85
2024/04/24 21:57:24;;;;;;;2.25;1.70;;;;;;;7.55;61.56;98824.97;6525469;22;19997;-85
2024/04/24 21:59:51;;;;;;;7.30;2.10;;;;;;;7.53;61.69;98829.47;6526150;21;20312;-85
2024/04/24 22:02:18;;;;;;;4.03;1.50;;;;;;;7.52;61.69;98823.38;6525830;22;19997;-85
2024/04/24 22:04:44;;;;;;;5.38;2.30;;;;;;;7.49;61.55;98825.34;6482276;22;20483;-84
2024/04/24 22:07:11;;;;;;;3.95;2.10;;;;;;;7.48;61.56;98821.88;6482969;22;20028;-84
2024/04/24 22:09:38;;;;;;;4.97;2.35;;;;;;;7.47;61.84;98822.00;6483078;22;20142;-85
2024/04/24 22:12:05;;;;;;;4.63;2.05;;;;;;;7.43;61.92;98816.94;6482494;22;20016;-84
2024/04/24 22:14:31;;;;;;;6.20;2.22;;;;;;;7.43;61.66;98824.78;6528214;22;20372;-85
2024/04/24 22:16:58;;;;;;;6.10;2.25;;;;;;;7.40;61.84;98819.72;6482600;22;20012;-85
2024/04/24 22:19:32;;;;;;;3.63;1.80;;;;;;;7.38;61.88;98819.00;6485358;22;20083;-84
2024/04/24 22:21:59;;;;;;;4.22;2.15;;;;;;;7.38;61.84;98812.91;6526900;22;20008;-85
2024/04/24 22:24:26;;;;;;;3.33;1.70;;;;;;;7.35;62.02;98810.44;6527559;22;20020;-86
2024/04/24 22:26:52;;;;;;;4.72;2.13;;;;;;;7.35;62.12;98815.69;6483013;22;19997;-85
2024/04/24 22:29:19;;;;;;;7.63;2.10;;;;;;;7.33;61.92;98814.94;6482378;22;20005;-86
2024/04/24 22:31:46;;;;;;;3.85;1.63;;;;;;;7.30;61.94;98819.41;6526999;22;20124;-85
2024/04/24 22:34:12;;;;;;;5.85;2.05;;;;;;;7.29;62.26;98814.28;6527775;22;20016;-85
2024/04/24 22:36:39;;;;;;;5.45;1.75;;;;;;;7.27;61.98;98822.25;6527701;22;20012;-85
2024/04/24 22:39:06;;;;;;;4.32;2.00;;;;;;;7.25;62.21;98826.69;6527919;21;20015;-87
2024/04/24 22:41:32;;;;;;;3.67;1.80;;;;;;;7.23;61.93;98814.63;6482433;22;20432;-85
2024/04/24 22:43:59;;;;;;;3.50;1.75;;;;;;;7.22;62.23;98818.19;6527569;22;20355;-86
2024/04/24 22:46:26;;;;;;;4.70;1.75;;;;;;;7.21;62.22;98816.53;6527999;22;20452;-86
2024/04/24 22:48:53;;;;;;;4.82;1.73;;;;;;;7.19;62.14;98821.00;6482749;22;20005;-84
2024/04/24 22:51:20;;;;;;;4.65;1.85;;;;;;;7.17;62.30;98824.53;6482603;22;20013;-84
2024/04/24 22:53:46;;;;;;;5.57;1.88;;;;;;;7.16;62.10;98820.25;6483135;22;20417;-85
2024/04/24 22:56:13;;;;;;;4.45;1.88;;;;;;;7.13;62.40;98819.56;6483000;22;20001;-85
2024/04/24 22:58:40;;;;;;;4.55;2.00;;;;;;;7.12;62.28;98815.25;6482618;21;20452;-85
2024/04/24 23:01:07;;;;;;;2.83;1.70;;;;;;;7.10;62.45;98817.16;6527206;22;20185;-85
2024/04/24 23:03:33;;;;;;;2.78;1.60;;;;;;;7.07;62.67;98812.94;6527246;22;20016;-84
2024/04/24 23:06:00;;;;;;;6.35;2.05;;;;;;;7.05;62.64;98820.00;6527538;22;20040;-85
2024/04/24 23:08:27;;;;;;;4.70;1.90;;;;;;;7.03;62.75;98816.66;6527177;21;20012;-85
2024/04/24 23:10:54;;;;;;;6.70;2.55;;;;;;;7.01;62.53;98810.66;6482613;22;20029;-85
2024/04/24 23:13:20;;;;;;;5.28;1.95;;;;;;;7.01;62.74;98808.88;6482001;22;20245;-84
2024/04/24 23:15:47;;;;;;;4.68;2.33;;;;;;;6.99;62.92;98809.91;6481477;22;19997;-86
2024/04/24 23:18:14;;;;;;;2.92;1.75;;;;;;;6.98;62.81;98806.44;6482344;22;20009;-86
2024/04/24 23:20:41;;;;;;;2.97;1.73;;;;;;;6.97;62.78;98804.75;6482003;22;20309;-85
2024/04/24 23:23:08;;;;;;;5.60;2.22;;;;;;;6.95;63.05;98809.22;6481889;22;20001;-86
2024/04/24 23:25:34;;;;;;;5.68;2.22;;;;;;;6.94;63.00;98806.69;6527056;22;20013;-85
2024/04/24 23:28:01;;;;;;;4.65;2.90;;;;;;;6.94;63.29;98798.84;6526801;22;20002;-85
2024/04/24 23:30:28;;;;;;;7.90;2.75;;;;;;;6.96;63.47;98804.84;6526529;21;20012;-86
2024/04/24 23:32:57;;;;;;;6.65;2.28;;;;;;;6.93;63.16;98797.16;6526318;22;20005;-87
2024/04/24 23:35:24;;;;;;;5.40;2.30;;;;;;;6.95;63.31;98800.56;6481620;22;20012;-85
2024/04/24 23:37:50;;;;;;;6.60;2.78;;;;;;;6.93;63.41;98798.03;6482105;22;20079;-85
2024/04/24 23:40:17;;;;;;;4.07;2.17;;;;;;;6.94;63.22;98798.84;6526767;21;20001;-87
2024/04/24 23:42:44;;;;;;;5.10;2.47;;;;;;;6.91;63.53;98797.25;6526479;22;20424;-87
2024/04/24 23:45:10;;;;;;;8.82;2.72;;;;;;;6.91;63.55;98792.00;6526478;22;20316;-84
2024/04/24 23:47:37;;;;;;;5.70;2.25;;;;;;;6.91;63.75;98792.88;6526637;22;20005;-84
2024/04/24 23:50:04;;;;;;;5.82;2.42;;;;;;;6.91;63.50;98797.25;6526375;21;20008;-85
2024/04/24 23:52:31;;;;;;;3.25;1.95;;;;;;;6.88;63.41;98800.88;6481713;22;20510;-84
2024/04/24 23:54:57;;;;;;;4.90;2.28;;;;;;;6.87;63.71;98793.97;6481653;22;20001;-84
2024/04/24 23:57:24;;;;;;;4.78;2.05;;;;;;;6.86;63.40;98799.28;6481632;22;20004;-85
2024/04/24 23:59:51;;;;;;;4.70;2.17;;;;;;;6.83;63.39;98789.84;6526185;21;20001;-85
